HNL weather

Daniel K Inouye International Airport
Honolulu, Hawaii, United States

Public forecast

Using degrees Fahrenheit for public forecast. Weather courtesy of forecast.io.

METAR (pilot weather report)

Retrieved 2019/04/21 10:53 UTC (51 minutes ago):

PHNL 211053Z 07010KT 10SM -RA FEW020 FEW030 BKN050 23/20 A3016

TAF (pilot weather forecast)

Retrieved 2019/04/21 06:28 UTC (5 hours ago):

TAF PHNL 210526Z 2106/2212 06012KT P6SM VCSH FEW025 SCT040 BKN060 FM212000 06013G22KT P6SM FEW025 SCT045 FM220500 06010KT P6SM FEW025 SCT045